SVA1336 OEHL-OERK
Flight info
| Callsign | SVA1336 |
|---|---|
| Flight time | 0h 50m |
| Altitude | 33000 |
| Route | HIL G662 SIVIS |
| Aircraft | A21N/M-SDE2E3FGHIRWXY/LB1 |
Departure
| Time | 2026-05-07 19:10 |
|---|---|
| Airport | Hail International Airport (OEHL) |
Arrival
| Time | 2026-05-07 20:01 |
|---|---|
| Airport | King Khalid International Airport (OERK) |
| Time | Latitude | Longitude | Altitude | Speed | Heading |
|---|---|---|---|---|---|
| 2026-05-07 18:42 | 27.43912 | 41.68937 | 3296 ft | 0 kts | 96° |
| 2026-05-07 19:01 | 27.43913 | 41.68927 | 3296 ft | 4 kts | 91° |
| 2026-05-07 19:02 | 27.43915 | 41.68898 | 3296 ft | 4 kts | 99° |
| 2026-05-07 19:02 | 27.43921 | 41.68868 | 3296 ft | 4 kts | 108° |
| 2026-05-07 19:02 | 27.43924 | 41.68857 | 3296 ft | 1 kts | 109° |
| 2026-05-07 19:05 | 27.43921 | 41.68862 | 3296 ft | 4 kts | 135° |
| 2026-05-07 19:05 | 27.43883 | 41.68860 | 3296 ft | 7 kts | 188° |
| 2026-05-07 19:06 | 27.43822 | 41.68855 | 3297 ft | 11 kts | 182° |
| 2026-05-07 19:06 | 27.43630 | 41.68841 | 3299 ft | 17 kts | 183° |
| 2026-05-07 19:06 | 27.43502 | 41.68832 | 3301 ft | 20 kts | 183° |
| 2026-05-07 19:07 | 27.43356 | 41.68823 | 3302 ft | 22 kts | 183° |
| 2026-05-07 19:07 | 27.43195 | 41.68811 | 3304 ft | 24 kts | 183° |
| 2026-05-07 19:07 | 27.43024 | 41.68799 | 3306 ft | 25 kts | 184° |
| 2026-05-07 19:07 | 27.42843 | 41.68787 | 3307 ft | 27 kts | 184° |
| 2026-05-07 19:08 | 27.42654 | 41.68773 | 3309 ft | 28 kts | 184° |
| 2026-05-07 19:08 | 27.42592 | 41.68747 | 3310 ft | 8 kts | 226° |
| 2026-05-07 19:08 | 27.42545 | 41.68688 | 3310 ft | 11 kts | 229° |
| 2026-05-07 19:08 | 27.42502 | 41.68607 | 3310 ft | 13 kts | 264° |
| 2026-05-07 19:09 | 27.42505 | 41.68549 | 3310 ft | 3 kts | 292° |
| 2026-05-07 19:09 | 27.42530 | 41.68537 | 3309 ft | 5 kts | 1° |
| 2026-05-07 19:09 | 27.42550 | 41.68539 | 3309 ft | 0 kts | 5° |
| 2026-05-07 19:09 | 27.42567 | 41.68540 | 3309 ft | 17 kts | 5° |
| 2026-05-07 19:10 | 27.42994 | 41.68570 | 3307 ft | 103 kts | 3° |
| 2026-05-07 19:10 | 27.43943 | 41.68635 | 3295 ft | 165 kts | 3° |
| 2026-05-07 19:10 | 27.45204 | 41.68727 | 3598 ft | 186 kts | 3° |
| 2026-05-07 19:10 | 27.46542 | 41.68835 | 4241 ft | 196 kts | 2° |
| 2026-05-07 19:11 | 27.47820 | 41.69283 | 5019 ft | 199 kts | 33° |
| 2026-05-07 19:11 | 27.48729 | 41.70496 | 5551 ft | 215 kts | 65° |
| 2026-05-07 19:11 | 27.48971 | 41.72208 | 5933 ft | 231 kts | 99° |
| 2026-05-07 19:11 | 27.48396 | 41.73928 | 6278 ft | 244 kts | 129° |
| 2026-05-07 19:12 | 27.47112 | 41.75257 | 6559 ft | 261 kts | 149° |
| 2026-05-07 19:12 | 27.45521 | 41.76342 | 6962 ft | 274 kts | 152° |
| 2026-05-07 19:12 | 27.43831 | 41.77428 | 7437 ft | 285 kts | 153° |
| 2026-05-07 19:12 | 27.42089 | 41.78535 | 8088 ft | 290 kts | 153° |
| 2026-05-07 19:13 | 27.40326 | 41.79657 | 8765 ft | 292 kts | 153° |
| 2026-05-07 19:13 | 27.38552 | 41.80784 | 9397 ft | 295 kts | 153° |
| 2026-05-07 19:13 | 27.36755 | 41.81925 | 10033 ft | 298 kts | 153° |
| 2026-05-07 19:13 | 27.34924 | 41.83090 | 10533 ft | 310 kts | 153° |
| 2026-05-07 19:14 | 27.32986 | 41.84314 | 10833 ft | 329 kts | 153° |
| 2026-05-07 19:14 | 27.31101 | 41.85903 | 11093 ft | 351 kts | 135° |
| 2026-05-07 19:14 | 27.29681 | 41.88233 | 11347 ft | 372 kts | 120° |
| 2026-05-07 19:14 | 27.28465 | 41.90846 | 11875 ft | 381 kts | 119° |
| 2026-05-07 19:15 | 27.27244 | 41.93501 | 12579 ft | 384 kts | 119° |
| 2026-05-07 19:15 | 27.26000 | 41.96168 | 13274 ft | 387 kts | 120° |
| 2026-05-07 19:15 | 27.24724 | 41.98857 | 13924 ft | 392 kts | 120° |
| 2026-05-07 19:15 | 27.23430 | 42.01575 | 14544 ft | 398 kts | 120° |
| 2026-05-07 19:16 | 27.22106 | 42.04329 | 15122 ft | 403 kts | 120° |
| 2026-05-07 19:16 | 27.20771 | 42.07110 | 15762 ft | 406 kts | 120° |
| 2026-05-07 19:16 | 27.19419 | 42.09915 | 16384 ft | 410 kts | 121° |
| 2026-05-07 19:16 | 27.18051 | 42.12750 | 16959 ft | 415 kts | 121° |
| 2026-05-07 19:17 | 27.16670 | 42.15617 | 17536 ft | 419 kts | 121° |
| 2026-05-07 19:17 | 27.15276 | 42.18510 | 18096 ft | 424 kts | 121° |
| 2026-05-07 19:17 | 27.13863 | 42.21435 | 18650 ft | 428 kts | 121° |
| 2026-05-07 19:17 | 27.12438 | 42.24388 | 19185 ft | 432 kts | 121° |
| 2026-05-07 19:18 | 27.11000 | 42.27362 | 19728 ft | 435 kts | 122° |
| 2026-05-07 19:18 | 27.09550 | 42.30365 | 20277 ft | 439 kts | 122° |
| 2026-05-07 19:18 | 27.08063 | 42.33370 | 20802 ft | 442 kts | 124° |
| 2026-05-07 19:18 | 27.06486 | 42.36343 | 21318 ft | 445 kts | 125° |
| 2026-05-07 19:19 | 27.04892 | 42.39336 | 21829 ft | 449 kts | 125° |
| 2026-05-07 19:19 | 27.03284 | 42.42354 | 22346 ft | 452 kts | 125° |
| 2026-05-07 19:19 | 27.01663 | 42.45396 | 22832 ft | 456 kts | 125° |
| 2026-05-07 19:19 | 27.00024 | 42.48463 | 23299 ft | 459 kts | 126° |
| 2026-05-07 19:20 | 26.98374 | 42.51548 | 23747 ft | 463 kts | 126° |
| 2026-05-07 19:20 | 26.96711 | 42.54656 | 24187 ft | 466 kts | 126° |
| 2026-05-07 19:20 | 26.95030 | 42.57769 | 24602 ft | 469 kts | 126° |
| 2026-05-07 19:20 | 26.93339 | 42.60913 | 24987 ft | 473 kts | 126° |
| 2026-05-07 19:21 | 26.91632 | 42.64083 | 25346 ft | 476 kts | 126° |
| 2026-05-07 19:21 | 26.89917 | 42.67274 | 25743 ft | 479 kts | 126° |
| 2026-05-07 19:21 | 26.88187 | 42.70490 | 26111 ft | 483 kts | 126° |
| 2026-05-07 19:21 | 26.86470 | 42.73685 | 26455 ft | 486 kts | 126° |
| 2026-05-07 19:22 | 26.84707 | 42.76981 | 26799 ft | 489 kts | 126° |
| 2026-05-07 19:22 | 26.82976 | 42.80212 | 27194 ft | 490 kts | 126° |
| 2026-05-07 19:22 | 26.81196 | 42.83526 | 27615 ft | 491 kts | 127° |
| 2026-05-07 19:22 | 26.79455 | 42.86761 | 28014 ft | 491 kts | 127° |
| 2026-05-07 19:23 | 26.77689 | 42.90036 | 28430 ft | 491 kts | 127° |
| 2026-05-07 19:23 | 26.75922 | 42.93309 | 28847 ft | 491 kts | 127° |
| 2026-05-07 19:23 | 26.74154 | 42.96577 | 29267 ft | 491 kts | 127° |
| 2026-05-07 19:23 | 26.72388 | 42.99843 | 29631 ft | 491 kts | 127° |
| 2026-05-07 19:24 | 26.70616 | 43.03117 | 29925 ft | 493 kts | 128° |
| 2026-05-07 19:24 | 26.68840 | 43.06399 | 29986 ft | 492 kts | 128° |
| 2026-05-07 19:24 | 26.65297 | 43.12939 | 29970 ft | 493 kts | 128° |
| 2026-05-07 19:25 | 26.61738 | 43.19488 | 29961 ft | 493 kts | 128° |
| 2026-05-07 19:25 | 26.58182 | 43.26033 | 29960 ft | 492 kts | 128° |
| 2026-05-07 19:26 | 26.54622 | 43.32578 | 29961 ft | 493 kts | 128° |
| 2026-05-07 19:26 | 26.51071 | 43.39115 | 29961 ft | 492 kts | 128° |
| 2026-05-07 19:27 | 26.47506 | 43.45650 | 29961 ft | 493 kts | 127° |
| 2026-05-07 19:27 | 26.43932 | 43.52191 | 29960 ft | 493 kts | 127° |
| 2026-05-07 19:28 | 26.40355 | 43.58722 | 29960 ft | 493 kts | 128° |
| 2026-05-07 19:28 | 26.36795 | 43.65206 | 29961 ft | 493 kts | 128° |
| 2026-05-07 19:29 | 26.33218 | 43.71727 | 29959 ft | 492 kts | 128° |
| 2026-05-07 19:29 | 26.29668 | 43.78271 | 29959 ft | 496 kts | 124° |
| 2026-05-07 19:30 | 26.26500 | 43.85120 | 29961 ft | 498 kts | 122° |
| 2026-05-07 19:30 | 26.23887 | 43.90831 | 29961 ft | 497 kts | 122° |
| 2026-05-07 19:31 | 26.20737 | 43.97693 | 29959 ft | 497 kts | 122° |
| 2026-05-07 19:31 | 26.17587 | 44.04539 | 29958 ft | 497 kts | 122° |
| 2026-05-07 19:32 | 26.14429 | 44.11389 | 29960 ft | 496 kts | 123° |
| 2026-05-07 19:32 | 26.11281 | 44.18198 | 29958 ft | 494 kts | 123° |
| 2026-05-07 19:33 | 26.08148 | 44.24969 | 29960 ft | 490 kts | 123° |
| 2026-05-07 19:33 | 26.05013 | 44.31727 | 29966 ft | 496 kts | 123° |
| 2026-05-07 19:34 | 26.01846 | 44.38558 | 29963 ft | 497 kts | 123° |
| 2026-05-07 19:34 | 25.98671 | 44.45385 | 29963 ft | 497 kts | 123° |
| 2026-05-07 19:35 | 25.95499 | 44.52199 | 29959 ft | 496 kts | 122° |
| 2026-05-07 19:35 | 25.92352 | 44.58953 | 29960 ft | 494 kts | 122° |
| 2026-05-07 19:36 | 25.89195 | 44.65713 | 29960 ft | 492 kts | 122° |
| 2026-05-07 19:36 | 25.86053 | 44.72431 | 29959 ft | 488 kts | 123° |
| 2026-05-07 19:37 | 25.82907 | 44.79136 | 29972 ft | 495 kts | 122° |
| 2026-05-07 19:37 | 25.79724 | 44.85905 | 29970 ft | 495 kts | 122° |
| 2026-05-07 19:38 | 25.76536 | 44.92689 | 29972 ft | 495 kts | 122° |
| 2026-05-07 19:38 | 25.73343 | 44.99464 | 29973 ft | 495 kts | 122° |
| 2026-05-07 19:39 | 25.70153 | 45.06223 | 29969 ft | 494 kts | 122° |
| 2026-05-07 19:39 | 25.66972 | 45.12955 | 29967 ft | 491 kts | 122° |
| 2026-05-07 19:40 | 25.63813 | 45.19633 | 29968 ft | 488 kts | 122° |
| 2026-05-07 19:40 | 25.60684 | 45.26249 | 29972 ft | 491 kts | 122° |
| 2026-05-07 19:41 | 25.57485 | 45.32995 | 29971 ft | 495 kts | 122° |
| 2026-05-07 19:41 | 25.54280 | 45.39753 | 29961 ft | 496 kts | 122° |
| 2026-05-07 19:42 | 25.51067 | 45.46511 | 29961 ft | 496 kts | 122° |
| 2026-05-07 19:42 | 25.47852 | 45.53261 | 29960 ft | 495 kts | 122° |
| 2026-05-07 19:43 | 25.44675 | 45.59933 | 29263 ft | 486 kts | 122° |
| 2026-05-07 19:43 | 25.43088 | 45.63254 | 28353 ft | 489 kts | 122° |
| 2026-05-07 19:43 | 25.41503 | 45.66568 | 27713 ft | 485 kts | 121° |
| 2026-05-07 19:44 | 25.39954 | 45.69806 | 27178 ft | 479 kts | 121° |
| 2026-05-07 19:44 | 25.38388 | 45.73080 | 26638 ft | 472 kts | 121° |
| 2026-05-07 19:44 | 25.36884 | 45.76223 | 26077 ft | 466 kts | 121° |
| 2026-05-07 19:44 | 25.35449 | 45.79419 | 25528 ft | 462 kts | 114° |
| 2026-05-07 19:45 | 25.34408 | 45.82743 | 25206 ft | 452 kts | 111° |
| 2026-05-07 19:45 | 25.33426 | 45.85988 | 24964 ft | 439 kts | 111° |
| 2026-05-07 19:45 | 25.32461 | 45.89140 | 24769 ft | 426 kts | 111° |
| 2026-05-07 19:45 | 25.31518 | 45.92189 | 24560 ft | 413 kts | 111° |
| 2026-05-07 19:46 | 25.30600 | 45.95139 | 24389 ft | 400 kts | 111° |
| 2026-05-07 19:46 | 25.29707 | 45.98008 | 24152 ft | 390 kts | 111° |
| 2026-05-07 19:46 | 25.28833 | 46.00818 | 23761 ft | 385 kts | 111° |
| 2026-05-07 19:46 | 25.27964 | 46.03603 | 23324 ft | 381 kts | 111° |
| 2026-05-07 19:47 | 25.27102 | 46.06364 | 22857 ft | 379 kts | 111° |
| 2026-05-07 19:47 | 25.26246 | 46.09103 | 22380 ft | 376 kts | 111° |
| 2026-05-07 19:47 | 25.25395 | 46.11826 | 21911 ft | 374 kts | 111° |
| 2026-05-07 19:47 | 25.24560 | 46.14496 | 21455 ft | 371 kts | 111° |
| 2026-05-07 19:48 | 25.23716 | 46.17189 | 21009 ft | 368 kts | 111° |
| 2026-05-07 19:48 | 25.22882 | 46.19851 | 20550 ft | 366 kts | 111° |
| 2026-05-07 19:48 | 25.22054 | 46.22495 | 20098 ft | 363 kts | 111° |
| 2026-05-07 19:48 | 25.21229 | 46.25124 | 19654 ft | 361 kts | 111° |
| 2026-05-07 19:49 | 25.20409 | 46.27736 | 19214 ft | 359 kts | 111° |
| 2026-05-07 19:49 | 25.19593 | 46.30325 | 18773 ft | 356 kts | 111° |
| 2026-05-07 19:49 | 25.18782 | 46.32903 | 18320 ft | 354 kts | 111° |
| 2026-05-07 19:49 | 25.17976 | 46.35464 | 17879 ft | 352 kts | 111° |
| 2026-05-07 19:50 | 25.17174 | 46.38008 | 17436 ft | 350 kts | 111° |
| 2026-05-07 19:50 | 25.16374 | 46.40540 | 17002 ft | 348 kts | 112° |
| 2026-05-07 19:50 | 25.15276 | 46.42885 | 16536 ft | 342 kts | 131° |
| 2026-05-07 19:50 | 25.13520 | 46.44585 | 16066 ft | 333 kts | 152° |
| 2026-05-07 19:51 | 25.11515 | 46.45838 | 15648 ft | 330 kts | 155° |
| 2026-05-07 19:51 | 25.09500 | 46.47041 | 15235 ft | 328 kts | 154° |
| 2026-05-07 19:51 | 25.07528 | 46.48241 | 14818 ft | 327 kts | 154° |
| 2026-05-07 19:51 | 25.05549 | 46.49469 | 14400 ft | 325 kts | 154° |
| 2026-05-07 19:52 | 25.03588 | 46.50701 | 13994 ft | 323 kts | 154° |
| 2026-05-07 19:52 | 25.01641 | 46.51933 | 13602 ft | 321 kts | 153° |
| 2026-05-07 19:52 | 24.99711 | 46.53158 | 13191 ft | 319 kts | 153° |
| 2026-05-07 19:52 | 24.97794 | 46.54376 | 12808 ft | 316 kts | 153° |
| 2026-05-07 19:53 | 24.95915 | 46.55570 | 12598 ft | 307 kts | 154° |
| 2026-05-07 19:53 | 24.94097 | 46.56726 | 12440 ft | 296 kts | 153° |
| 2026-05-07 19:53 | 24.92329 | 46.57847 | 12167 ft | 291 kts | 154° |
| 2026-05-07 19:53 | 24.90580 | 46.58951 | 11800 ft | 289 kts | 154° |
| 2026-05-07 19:54 | 24.88837 | 46.60053 | 11406 ft | 288 kts | 153° |
| 2026-05-07 19:54 | 24.87106 | 46.61148 | 11017 ft | 287 kts | 153° |
| 2026-05-07 19:54 | 24.85376 | 46.62241 | 10624 ft | 286 kts | 152° |
| 2026-05-07 19:54 | 24.83668 | 46.63319 | 10238 ft | 286 kts | 152° |
| 2026-05-07 19:55 | 24.81946 | 46.64403 | 9827 ft | 283 kts | 151° |
| 2026-05-07 19:55 | 24.80238 | 46.65477 | 9389 ft | 283 kts | 151° |
| 2026-05-07 19:55 | 24.78531 | 46.66555 | 8961 ft | 282 kts | 149° |
| 2026-05-07 19:55 | 24.77047 | 46.67929 | 8472 ft | 280 kts | 124° |
| 2026-05-07 19:56 | 24.76332 | 46.69876 | 8001 ft | 275 kts | 94° |
| 2026-05-07 19:56 | 24.76563 | 46.71916 | 7558 ft | 268 kts | 66° |
| 2026-05-07 19:56 | 24.77428 | 46.73696 | 7288 ft | 259 kts | 56° |
| 2026-05-07 19:56 | 24.78368 | 46.75354 | 6996 ft | 252 kts | 56° |
| 2026-05-07 19:57 | 24.79280 | 46.76992 | 6628 ft | 250 kts | 56° |
| 2026-05-07 19:57 | 24.80188 | 46.78620 | 6236 ft | 248 kts | 53° |
| 2026-05-07 19:57 | 24.81422 | 46.79876 | 5802 ft | 242 kts | 21° |
| 2026-05-07 19:57 | 24.83044 | 46.80114 | 5349 ft | 237 kts | 346° |
| 2026-05-07 19:58 | 24.84484 | 46.79300 | 4736 ft | 242 kts | 320° |
| 2026-05-07 19:58 | 24.85742 | 46.78019 | 4017 ft | 247 kts | 319° |
| 2026-05-07 19:58 | 24.87055 | 46.76896 | 3617 ft | 228 kts | 327° |
| 2026-05-07 19:58 | 24.88374 | 46.76084 | 3417 ft | 205 kts | 334° |
| 2026-05-07 19:59 | 24.89540 | 46.75320 | 3231 ft | 187 kts | 328° |
| 2026-05-07 19:59 | 24.90621 | 46.74666 | 2943 ft | 168 kts | 330° |
| 2026-05-07 19:59 | 24.91587 | 46.74050 | 2649 ft | 149 kts | 332° |
| 2026-05-07 19:59 | 24.92467 | 46.73498 | 2433 ft | 144 kts | 331° |
| 2026-05-07 20:00 | 24.93337 | 46.72948 | 2264 ft | 144 kts | 330° |
| 2026-05-07 20:00 | 24.94208 | 46.72397 | 2105 ft | 145 kts | 330° |
| 2026-05-07 20:00 | 24.95042 | 46.71872 | 2040 ft | 122 kts | 330° |
| 2026-05-07 20:00 | 24.95589 | 46.71527 | 2038 ft | 61 kts | 330° |
| 2026-05-07 20:01 | 24.95849 | 46.71354 | 2043 ft | 38 kts | 327° |
| 2026-05-07 20:01 | 24.95916 | 46.71288 | 2038 ft | 14 kts | 314° |
| 2026-05-07 20:01 | 24.95983 | 46.71200 | 2037 ft | 16 kts | 299° |
| 2026-05-07 20:01 | 24.96006 | 46.71073 | 2041 ft | 18 kts | 263° |
| 2026-05-07 20:02 | 24.95952 | 46.70945 | 2040 ft | 19 kts | 238° |
| 2026-05-07 20:02 | 24.95905 | 46.70853 | 2042 ft | 9 kts | 240° |
| 2026-05-07 20:02 | 24.95870 | 46.70786 | 2042 ft | 11 kts | 239° |
| 2026-05-07 20:02 | 24.95832 | 46.70714 | 2042 ft | 9 kts | 240° |
| 2026-05-07 20:03 | 24.95813 | 46.70678 | 2038 ft | 0 kts | 240° |
| 2026-05-07 20:04 | 24.95811 | 46.70674 | 2036 ft | 2 kts | 240° |
| 2026-05-07 20:04 | 24.95802 | 46.70656 | 2036 ft | 4 kts | 239° |
| 2026-05-07 20:04 | 24.95790 | 46.70634 | 2040 ft | 0 kts | 240° |
| 2026-05-07 20:05 | 24.95789 | 46.70632 | 2042 ft | 1 kts | 240° |
| 2026-05-07 20:05 | 24.95780 | 46.70615 | 2038 ft | 4 kts | 240° |
| 2026-05-07 20:05 | 24.95763 | 46.70585 | 2036 ft | 5 kts | 225° |
| 2026-05-07 20:05 | 24.95722 | 46.70570 | 2042 ft | 7 kts | 193° |
| 2026-05-07 20:06 | 24.95702 | 46.70565 | 2036 ft | 3 kts | 193° |
| 2026-05-07 20:06 | 24.95692 | 46.70563 | 2036 ft | 0 kts | 193° |